Acton, MA

3:36 AM EST on December 19, 2014 (GMT -0500)
Long Lake | Change Station
CLOSE
Current Station
Personal Weather Station
Location: Littleton, MA
Elevation: 272 ft
Nearby Weather Stations

Elev 272 ft 42.53 °N, 71.47 °W | Updated 2 seconds ago

Partly Cloudy
Partly Cloudy
32.0 °F
Feels Like 32 °F
N
1.0
Wind Variable Wind from ESE

Today
High -- | Low -- °F
--% Chance of Precip.
Yesterday
High -- | Low -- °F
Precip. -- in
7:11 AM 4:14 PM
Waning Crescent, 9% visible
Pressure 29.91 in
Visibility 10.0 miles
Clouds Scattered Clouds 4900 ft
Windchill 32 °F
Dew Point 30 °F
Humidity 91%
Rainfall -999.00 in
Snow Depth Not available.
UV 0 out of 12
Pollen .10 out of 12
Air Quality Not available.
Flu Activity Not available.
METAR KBED 190756Z 31009KT 10SM SCT049 00/M04 A2986 RMK AO2 SLP128 T00001044

More Conditions Fewer Conditions

Pressure 29.91 in
Visibility 10.0 miles
Clouds Scattered Clouds 4900 ft
Windchill 32 °F
Dew Point 30 °F
Humidity 91%
Rainfall -999.00 in
Snow Depth Not available.
UV 0 out of 12
Pollen .10 out of 12
Air Quality Not available.
Flu Activity Not available.
METAR KBED 190756Z 31009KT 10SM SCT049 00/M04 A2986 RMK AO2 SLP128 T00001044

More Conditions Fewer Conditions

10-Day Weather Forecast

Almanac

Astronomy

Dec. 19, 2014 Rise Set
Actual Time
Civil Twilight
Nautical Twilight
Astronomical Twilight
Moon
Length of Visible Light
Length of Day
Tomorrow will be .
, % of the Moon is Illuminated

Today's Extremes

State Highs State Lows

Community

WunderPhotos

Upload Photos

1,778,953 photos uploaded!

WunderBlogs® & News

Nearby

Air Quality

  Air Quality AQ Index Pollutant
Not available.

Snow Depth

Station Depth Elevation

Earthquake Activity

City Distance Mag. Time & Date
Minimum magnitude displayed is 2.5.

Coastal Water Temperatures

Place Temperature

Nearby Weather Stations